Time;durP1;ratioP1;P1;durP2;ratioP2;P2;SDS_P1;SDS_P2;PMS_P1;PMS_P2;Temp;Humidity;BMP_temperature;BMP_pressure;BME280_temperature;BME280_humidity;BME280_pressure;Samples;Min_cycle;Max_cycle;Signal;HPM_P1;HPM_P2
2022/06/13 00:01:20;;;;;;;9.88;5.85;;;;;;;15.80;53.84;99599.22;6162463;23;20031;-77
2022/06/13 00:03:47;;;;;;;8.85;5.10;;;;;;;15.77;53.90;99598.47;6186741;23;20020;-77
2022/06/13 00:06:13;;;;;;;10.15;5.85;;;;;;;15.75;54.27;99590.63;6162838;23;20016;-78
2022/06/13 00:08:39;;;;;;;10.98;5.90;;;;;;;15.66;54.38;99583.94;6214045;23;20393;-79
2022/06/13 00:11:09;;;;;;;10.38;5.70;;;;;;;15.58;54.64;99582.47;6215326;23;20068;-78
2022/06/13 00:13:42;;;;;;;11.05;5.28;;;;;;;15.58;55.05;99583.31;6188610;23;20091;-79
2022/06/13 00:16:09;;;;;;;9.48;6.07;;;;;;;15.50;55.41;99574.84;6163273;23;20022;-78
2022/06/13 00:18:35;;;;;;;9.70;4.93;;;;;;;15.50;55.37;99588.81;6215274;23;20460;-79
2022/06/13 00:21:02;;;;;;;6.38;5.22;;;;;;;15.41;55.42;99575.16;6215062;23;20021;-79
2022/06/13 00:23:28;;;;;;;6.97;4.82;;;;;;;15.41;55.47;99580.38;6187681;23;20017;-80
2022/06/13 00:25:54;;;;;;;9.70;5.00;;;;;;;15.34;55.66;99572.72;6188455;23;20024;-78
2022/06/13 00:28:21;;;;;;;8.43;5.70;;;;;;;15.29;55.38;99569.41;6187570;23;20189;-80
2022/06/13 00:30:47;;;;;;;12.23;5.28;;;;;;;15.23;55.42;99564.34;6186357;23;20021;-79
2022/06/13 00:33:13;;;;;;;13.40;5.35;;;;;;;15.25;55.14;99573.03;6187214;23;20020;-80
2022/06/13 00:35:39;;;;;;;11.48;5.35;;;;;;;15.23;55.78;99569.59;6213774;23;20756;-78
2022/06/13 00:38:06;;;;;;;17.95;6.00;;;;;;;15.17;55.74;99573.28;6187399;23;20024;-78
2022/06/13 00:40:34;;;;;;;11.88;4.95;;;;;;;15.13;55.75;99578.63;6187936;23;20070;-79
2022/06/13 00:43:01;;;;;;;17.42;6.55;;;;;;;15.08;55.83;99576.16;6139779;23;20232;-79
2022/06/13 00:45:35;;;;;;;23.02;11.82;;;;;;;14.93;56.29;99559.16;6187143;23;20095;-79
2022/06/13 00:48:03;;;;;;;22.42;13.48;;;;;;;14.93;56.32;99566.16;6163086;23;20353;-79
2022/06/13 00:50:35;;;;;;;32.53;17.80;;;;;;;14.97;56.71;99576.50;6213229;23;20016;-77
2022/06/13 00:53:19;;;;;;;24.48;12.98;;;;;;;14.93;56.92;99564.41;6175925;23;20442;-78
2022/06/13 00:55:58;;;;;;;11.75;6.13;;;;;;;14.83;56.86;99555.13;6163294;23;20065;-78
2022/06/13 00:58:29;;;;;;;7.18;5.07;;;;;;;14.79;57.40;99561.34;6216123;23;20074;-79
2022/06/13 01:00:57;;;;;;;17.60;10.80;;;;;;;14.78;57.62;99564.88;6190142;23;20017;-78
2022/06/13 01:03:27;;;;;;;19.00;10.13;;;;;;;14.76;57.51;99565.78;6197328;23;20020;-78
2022/06/13 01:05:56;;;;;;;13.02;7.60;;;;;;;14.66;57.91;99551.22;6195505;23;20023;-78
2022/06/13 01:08:26;;;;;;;8.13;4.38;;;;;;;14.77;57.60;99561.41;6216410;23;20020;-79
2022/06/13 01:11:16;;;;;;;6.70;4.15;;;;;;;14.80;57.44;99574.38;6187517;23;20020;-79
2022/06/13 01:13:48;;;;;;;6.82;3.88;;;;;;;14.80;57.28;99569.16;6213677;23;20385;-79
2022/06/13 01:16:26;;;;;;;5.60;4.00;;;;;;;14.83;57.03;99570.84;6162215;23;20035;-78
2022/06/13 01:19:16;;;;;;;7.80;3.97;;;;;;;14.87;57.06;99575.09;6187629;23;20020;-80
2022/06/13 01:22:08;;;;;;;8.25;3.70;;;;;;;14.94;56.95;99576.59;6134417;23;20020;-79
2022/06/13 01:25:07;;;;;;;12.07;7.78;;;;;;;14.96;56.83;99569.53;6213466;23;20051;-78
2022/06/13 01:27:42;;;;;;;7.45;3.70;;;;;;;15.01;56.94;99570.25;6187050;23;20016;-80
2022/06/13 01:30:42;;;;;;;9.90;6.13;;;;;;;15.11;56.89;99573.47;6213435;23;20027;-76
2022/06/13 01:33:46;;;;;;;5.72;4.00;;;;;;;15.18;56.79;99566.25;6161493;23;20027;-79
2022/06/13 01:36:19;;;;;;;7.93;4.50;;;;;;;15.32;56.26;99576.31;6163841;23;20024;-79
2022/06/13 01:38:57;;;;;;;6.50;3.45;;;;;;;15.38;55.97;99575.25;6188946;23;20016;-78
2022/06/13 01:41:41;;;;;;;11.77;6.47;;;;;;;15.47;55.74;99578.41;6214496;23;20055;-78
2022/06/13 01:44:15;;;;;;;9.25;4.88;;;;;;;15.62;55.58;99574.44;6214781;23;20016;-78
2022/06/13 01:47:28;;;;;;;4.65;3.38;;;;;;;15.83;54.97;99577.25;6189057;23;20076;-78
2022/06/13 01:50:02;;;;;;;;;;;;;;;15.91;54.82;99575.25;6187083;23;20040;-77
2022/06/13 01:52:49;;;;;;;3.90;3.00;;;;;;;15.93;54.87;99567.31;6223180;23;19919;-77
2022/06/13 01:55:37;;;;;;;6.22;3.78;;;;;;;16.06;54.34;99565.13;6209822;23;20016;-79
2022/06/13 01:58:23;;;;;;;4.60;3.90;;;;;;;16.25;54.07;99567.97;6214483;23;19997;-79
2022/06/13 02:01:06;;;;;;;7.50;3.40;;;;;;;16.36;53.72;99571.03;6211834;23;20084;-78
2022/06/13 02:03:46;;;;;;;4.53;3.55;;;;;;;16.46;53.57;99570.72;6167464;23;20016;-79
2022/06/13 02:06:16;;;;;;;5.20;3.35;;;;;;;16.47;53.40;99577.69;6195298;23;20062;-78
2022/06/13 02:09:06;;;;;;;4.22;3.15;;;;;;;16.54;53.26;99569.53;6189649;23;20016;-79
2022/06/13 02:11:44;;;;;;;5.45;4.10;;;;;;;16.66;52.91;99570.81;6215109;23;20035;-77
2022/06/13 02:14:19;;;;;;;4.63;3.13;;;;;;;16.71;52.74;99571.53;6214238;23;20354;-77
2022/06/13 02:17:07;;;;;;;4.75;3.60;;;;;;;16.81;52.80;99566.78;6187459;23;20021;-79
2022/06/13 02:19:38;;;;;;;5.20;3.58;;;;;;;16.88;52.30;99566.53;6215069;23;20327;-79
2022/06/13 02:22:24;;;;;;;4.95;3.30;;;;;;;16.86;52.59;99570.09;6187328;23;20382;-79
2022/06/13 02:25:01;;;;;;;8.50;3.47;;;;;;;16.95;52.45;99562.75;6187445;23;20023;-79
2022/06/13 02:27:33;;;;;;;5.25;3.30;;;;;;;16.98;52.60;99552.13;6214863;23;20031;-79
2022/06/13 02:30:10;;;;;;;5.68;3.38;;;;;;;17.07;52.31;99553.53;6189470;23;20020;-79
2022/06/13 02:32:39;;;;;;;5.88;3.53;;;;;;;17.08;52.18;99550.00;6163501;23;20055;-77
2022/06/13 02:35:14;;;;;;;5.00;3.50;;;;;;;17.23;52.16;99554.63;6189690;23;20023;-78
2022/06/13 02:37:45;;;;;;;3.90;3.28;;;;;;;17.29;51.99;99558.81;6163274;23;20020;-79
2022/06/13 02:40:28;;;;;;;8.55;4.10;;;;;;;17.27;51.96;99550.97;6188379;23;20518;-80
2022/06/13 02:42:58;;;;;;;5.65;3.90;;;;;;;17.25;51.53;99558.06;6162891;23;20020;-78
2022/06/13 02:45:53;;;;;;;12.50;3.80;;;;;;;17.01;52.11;99537.09;6162731;23;20036;-77
2022/06/13 02:48:19;;;;;;;6.05;3.38;;;;;;;17.09;52.66;99551.72;6160384;23;20202;-79
2022/06/13 02:51:34;;;;;;;7.15;3.78;;;;;;;17.16;52.48;99551.41;6189285;23;20021;-78
2022/06/13 02:54:00;;;;;;;4.28;3.00;;;;;;;17.07;52.94;99550.91;6068825;23;20553;-78
2022/06/13 02:56:37;;;;;;;4.75;3.33;;;;;;;17.04;52.90;99536.13;6068293;23;20539;-77
2022/06/13 02:59:24;;;;;;;5.22;3.40;;;;;;;17.32;52.98;99553.44;6155554;23;20127;-78
2022/06/13 03:01:54;;;;;;;7.03;3.65;;;;;;;17.23;52.23;99525.72;6214336;23;20078;-79
2022/06/13 03:04:40;;;;;;;5.10;3.03;;;;;;;17.42;52.64;99535.50;6162887;23;20021;-79
2022/06/13 03:07:16;;;;;;;4.30;3.40;;;;;;;17.48;52.42;99526.50;6187455;23;20047;-78
2022/06/13 03:09:56;;;;;;;5.00;2.65;;;;;;;17.61;52.24;99538.19;6188669;23;20020;-79
2022/06/13 03:12:25;;;;;;;6.97;3.53;;;;;;;17.67;51.75;99540.56;6188578;23;20020;-78
2022/06/13 03:15:01;;;;;;;4.38;3.50;;;;;;;17.62;52.12;99537.28;6187233;23;20013;-79
2022/06/13 03:17:32;;;;;;;7.07;3.90;;;;;;;17.75;52.23;99525.34;6214684;23;20016;-78
2022/06/13 03:20:08;;;;;;;5.90;3.90;;;;;;;17.87;51.79;99525.72;6163446;23;20099;-78
2022/06/13 03:22:46;;;;;;;8.15;4.00;;;;;;;17.91;51.77;99519.41;6162609;23;20076;-79
2022/06/13 03:25:35;;;;;;;10.98;4.55;;;;;;;17.97;52.03;99519.13;6163655;23;20021;-78
2022/06/13 03:28:15;;;;;;;9.65;3.40;;;;;;;18.10;51.35;99535.25;6214494;23;20078;-78
2022/06/13 03:31:11;;;;;;;5.25;3.22;;;;;;;18.12;51.65;99533.41;6187309;23;20116;-77
2022/06/13 03:33:41;;;;;;;5.13;2.80;;;;;;;18.10;51.32;99519.44;6211209;23;20027;-78
2022/06/13 03:36:26;;;;;;;6.80;3.17;;;;;;;18.34;50.98;99540.34;6187301;23;20028;-80
2022/06/13 03:39:07;;;;;;;8.75;3.47;;;;;;;18.36;51.02;99527.97;6163734;23;20028;-81
2022/06/13 03:41:40;;;;;;;5.45;2.80;;;;;;;18.39;50.68;99532.25;6188806;23;20024;-79
2022/06/13 03:44:43;;;;;;;3.85;3.00;;;;;;;18.39;50.35;99525.19;6162455;23;20017;-78
2022/06/13 03:47:27;;;;;;;7.70;3.13;;;;;;;18.52;50.29;99523.72;6183381;23;20012;-78
2022/06/13 03:50:10;;;;;;;7.10;2.95;;;;;;;18.64;50.07;99519.66;6186730;23;20046;-80
2022/06/13 03:52:42;;;;;;;6.32;2.88;;;;;;;18.69;49.94;99514.16;6161716;23;20016;-79
2022/06/13 03:55:20;;;;;;;6.25;3.05;;;;;;;18.73;49.96;99515.75;6162964;23;20456;-78
2022/06/13 03:58:04;;;;;;;4.85;2.85;;;;;;;18.98;50.06;99513.72;6113693;23;20016;-79
2022/06/13 04:00:41;;;;;;;2.75;2.55;;;;;;;19.28;49.71;99521.91;6188175;23;20024;-79
2022/06/13 04:03:13;;;;;;;7.90;3.33;;;;;;;19.41;49.36;99515.13;6165706;23;20018;-77
2022/06/13 04:06:01;;;;;;;4.75;2.75;;;;;;;19.46;49.20;99506.97;6189968;23;20021;-78
2022/06/13 04:08:31;;;;;;;4.05;2.63;;;;;;;19.61;49.20;99504.47;6221564;23;20043;-79
2022/06/13 04:11:02;;;;;;;4.35;2.75;;;;;;;19.85;48.75;99505.00;6168841;23;20414;-80
2022/06/13 04:13:43;;;;;;;6.97;2.70;;;;;;;20.05;48.41;99509.25;6217399;23;20013;-78
2022/06/13 04:16:15;;;;;;;4.15;2.60;;;;;;;20.20;48.24;99514.66;6217273;23;20020;-79
2022/06/13 04:18:59;;;;;;;9.30;2.90;;;;;;;20.36;48.42;99490.91;6191517;23;20066;-79
2022/06/13 04:21:47;;;;;;;8.18;3.00;;;;;;;20.45;47.85;99493.06;6164405;23;20023;-78
2022/06/13 04:24:37;;;;;;;7.53;2.97;;;;;;;20.69;47.67;99495.28;6166757;23;20021;-80
2022/06/13 04:27:18;;;;;;;4.53;3.08;;;;;;;20.80;47.06;99492.91;6190899;23;20027;-79
2022/06/13 04:30:01;;;;;;;3.97;2.80;;;;;;;20.93;46.91;99487.78;6191105;23;20016;-78
2022/06/13 04:32:38;;;;;;;5.13;3.17;;;;;;;21.25;46.38;99485.09;6188029;23;20021;-79
2022/06/13 04:35:05;;;;;;;4.22;2.80;;;;;;;21.42;46.27;99488.53;6215624;23;20070;-79
2022/06/13 04:37:32;;;;;;;5.95;3.00;;;;;;;21.66;46.41;99480.94;6189701;23;20027;-79
2022/06/13 04:40:04;;;;;;;3.55;2.85;;;;;;;21.98;46.08;99486.09;6189426;23;20021;-78
2022/06/13 04:42:35;;;;;;;5.53;2.70;;;;;;;22.20;45.94;99475.00;6191132;23;20027;-79
2022/06/13 04:45:16;;;;;;;5.47;2.97;;;;;;;22.39;45.26;99457.97;6199818;23;20039;-80
2022/06/13 04:47:43;;;;;;;7.75;2.60;;;;;;;22.52;44.54;99464.19;6234825;23;20095;-80
2022/06/13 04:50:16;;;;;;;6.82;3.00;;;;;;;22.50;44.79;99452.00;6182600;23;20078;-79
2022/06/13 04:52:48;;;;;;;5.15;2.85;;;;;;;22.62;44.12;99466.28;6197674;23;20012;-78
2022/06/13 04:55:22;;;;;;;5.68;3.03;;;;;;;22.90;44.47;99477.72;6197699;23;20027;-80
2022/06/13 04:57:48;;;;;;;6.53;2.95;;;;;;;23.09;44.27;99478.19;6211873;23;20020;-80
2022/06/13 05:00:14;;;;;;;4.65;3.00;;;;;;;23.21;43.80;99476.56;6187293;23;20072;-78
2022/06/13 05:02:47;;;;;;;3.90;2.70;;;;;;;23.37;43.69;99471.06;6213084;23;20008;-79
2022/06/13 05:05:41;;;;;;;6.85;2.72;;;;;;;23.42;43.06;99487.56;6214827;23;20064;-82
2022/06/13 05:08:12;;;;;;;4.53;2.60;;;;;;;23.28;43.48;99477.03;6202053;23;20510;-82
2022/06/13 05:10:41;;;;;;;4.82;3.00;;;;;;;23.16;43.77;99452.97;6168326;23;20017;-80
2022/06/13 05:13:09;;;;;;;5.60;3.10;;;;;;;23.31;43.71;99471.47;6201086;23;20020;-80
2022/06/13 05:15:36;;;;;;;5.65;2.90;;;;;;;23.60;43.29;99474.84;6224133;23;20088;-80
2022/06/13 05:18:28;;;;;;;5.90;2.85;;;;;;;24.11;43.21;99480.28;6177814;23;20024;-79
2022/06/13 05:21:03;;;;;;;6.20;2.65;;;;;;;24.58;43.07;99469.84;6220475;23;20072;-79
2022/06/13 05:23:45;;;;;;;7.05;2.80;;;;;;;24.98;42.46;99476.72;6190296;23;20059;-81
2022/06/13 05:26:11;;;;;;;6.32;3.10;;;;;;;24.92;41.84;99465.56;6166730;23;20021;-81
2022/06/13 05:28:37;;;;;;;5.45;3.15;;;;;;;24.84;41.98;99478.59;6154697;23;20016;-79
2022/06/13 05:31:11;;;;;;;8.60;3.38;;;;;;;25.02;41.71;99472.88;6206669;23;20306;-80
2022/06/13 05:33:40;;;;;;;4.88;2.88;;;;;;;25.03;41.46;99478.09;6208674;23;20012;-78
2022/06/13 05:36:12;;;;;;;6.28;3.10;;;;;;;24.90;42.08;99450.69;6190503;23;20013;-86
2022/06/13 05:39:13;;;;;;;;;;;;;;;25.17;41.70;99471.72;6179292;23;20044;-84
2022/06/13 05:41:39;;;;;;;5.95;3.30;;;;;;;25.39;41.27;99436.31;6193043;23;19932;-81
2022/06/13 05:44:06;;;;;;;4.53;3.17;;;;;;;25.70;40.53;99454.47;6190624;23;20020;-84
2022/06/13 05:46:34;;;;;;;7.22;3.10;;;;;;;25.75;40.65;99454.94;6217550;23;20017;-82
2022/06/13 05:49:01;;;;;;;4.22;3.03;;;;;;;25.94;40.40;99472.13;6219547;23;20012;-82
2022/06/13 05:51:38;;;;;;;6.60;3.08;;;;;;;26.25;39.99;99430.63;6164993;23;20072;-81
2022/06/13 05:54:43;;;;;;;3.85;2.90;;;;;;;27.91;39.53;99470.31;6197632;23;20339;-85
2022/06/13 05:57:10;;;;;;;4.38;3.10;;;;;;;29.79;36.67;99425.81;6146550;23;20335;-84
2022/06/13 05:59:40;;;;;;;4.00;2.63;;;;;;;31.73;33.87;99439.81;6192714;23;20013;-81
2022/06/13 06:02:11;;;;;;;5.82;3.42;;;;;;;33.40;31.91;99434.66;6190449;23;20020;-82
2022/06/13 06:04:52;;;;;;;7.28;3.33;;;;;;;34.32;29.89;99444.16;6195115;23;20040;-80
2022/06/13 06:07:19;;;;;;;5.50;2.70;;;;;;;34.79;28.30;99420.75;6190032;23;20055;-78
2022/06/13 06:09:45;;;;;;;3.83;2.83;;;;;;;35.84;27.19;99433.66;6217413;23;20013;-80
2022/06/13 06:12:17;;;;;;;3.97;2.83;;;;;;;36.16;26.32;99432.44;6165576;23;20474;-82
2022/06/13 06:14:44;;;;;;;3.53;2.92;;;;;;;34.91;26.48;99431.13;6213830;23;20147;-80
2022/06/13 06:17:11;;;;;;;4.28;2.90;;;;;;;33.66;27.32;99420.13;6215956;23;20021;-81
2022/06/13 06:20:20;;;;;;;5.20;2.75;;;;;;;32.59;27.85;99404.81;6163294;23;20272;-81
2022/06/13 06:22:47;;;;;;;3.83;2.97;;;;;;;32.83;28.17;99438.19;6165246;23;20112;-80
2022/06/13 06:25:19;;;;;;;3.38;2.88;;;;;;;32.80;28.40;99425.03;6217802;23;20485;-82
2022/06/13 06:28:03;;;;;;;6.82;2.95;;;;;;;33.40;28.69;99436.53;6217282;23;20561;-81
2022/06/13 06:30:34;;;;;;;4.13;3.10;;;;;;;34.01;28.07;99409.06;6190843;23;20012;-80
2022/06/13 06:33:01;;;;;;;8.70;3.10;;;;;;;34.31;27.33;99433.56;6190185;23;20115;-82
2022/06/13 06:35:29;;;;;;;7.15;2.90;;;;;;;34.20;27.13;99410.50;6190659;23;20013;-79
2022/06/13 06:37:55;;;;;;;4.32;2.92;;;;;;;35.34;26.77;99406.28;6168795;23;20398;-80
2022/06/13 06:40:27;;;;;;;4.27;2.70;;;;;;;36.30;25.86;99417.16;6189895;23;20020;-79
2022/06/13 06:42:54;;;;;;;5.18;2.83;;;;;;;37.40;24.81;99426.97;6164763;23;20232;-81
2022/06/13 06:45:22;;;;;;;3.25;2.78;;;;;;;37.97;24.36;99426.91;6190400;23;20198;-79
2022/06/13 06:47:52;;;;;;;6.28;3.05;;;;;;;39.10;23.12;99430.13;6189322;23;20016;-80
2022/06/13 06:50:25;;;;;;;9.30;3.33;;;;;;;40.64;21.48;99431.53;6188513;23;20024;-82
2022/06/13 06:52:58;;;;;;;6.13;3.13;;;;;;;41.24;20.63;99372.97;6189666;23;20025;-82
2022/06/13 07:01:22;;;;;;;5.75;2.80;;;;;;;37.85;23.23;99357.94;6192242;23;20019;-81
2022/06/13 07:03:48;;;;;;;5.25;3.10;;;;;;;37.85;23.02;99432.06;6165994;23;20044;-83
2022/06/13 07:10:21;;;;;;;3.50;3.20;;;;;;;36.37;24.11;99429.94;6188475;23;20075;-82
2022/06/13 07:13:33;;;;;;;5.22;3.22;;;;;;;34.52;25.42;99325.78;6056109;23;20020;-83
2022/06/13 07:17:27;;;;;;;;;;;;;;;;;;;;;
2022/06/13 07:20:11;;;;;;;6.63;3.10;;;;;;;34.74;25.64;99358.34;6183720;23;20021;-84
2022/06/13 07:22:51;;;;;;;6.80;3.13;;;;;;;35.20;25.95;99425.00;6192539;23;20024;-83
2022/06/13 07:25:25;;;;;;;5.18;3.00;;;;;;;33.86;26.21;99387.34;6193118;23;20035;-83
2022/06/13 07:27:52;;;;;;;5.25;3.13;;;;;;;32.72;27.54;99426.72;6192387;23;20020;-84
2022/06/13 07:30:22;;;;;;;5.53;2.90;;;;;;;32.18;28.02;99432.47;6170110;23;20016;-85
2022/06/13 07:32:50;;;;;;;5.57;2.80;;;;;;;32.22;28.28;99439.19;6168237;23;20017;-87
2022/06/13 07:35:22;;;;;;;3.10;2.80;;;;;;;31.46;28.79;99387.88;6194545;23;20267;-84
2022/06/13 07:40:41;;;;;;;4.22;2.85;;;;;;;30.78;29.67;99371.44;6168621;23;20024;-85
2022/06/13 07:43:37;;;;;;;3.88;2.60;;;;;;;30.49;30.51;99411.91;6169543;23;20020;-84
2022/06/13 07:46:09;;;;;;;7.50;2.75;;;;;;;29.91;30.55;99389.75;6186192;23;20017;-82
2022/06/13 07:48:35;;;;;;;4.32;2.38;;;;;;;29.55;31.16;99382.47;6187763;23;20075;-80
2022/06/13 07:51:02;;;;;;;5.47;2.83;;;;;;;29.52;31.42;99425.63;6140463;23;20079;-79
2022/06/13 07:53:28;;;;;;;4.35;2.95;;;;;;;29.36;31.85;99447.66;6215055;23;20016;-80
2022/06/13 07:55:54;;;;;;;6.38;3.17;;;;;;;28.99;32.55;99427.78;6188821;23;20024;-81
2022/06/13 07:58:28;;;;;;;4.60;3.17;;;;;;;28.96;33.12;99441.44;6216781;23;20081;-80
2022/06/13 08:00:54;;;;;;;3.00;2.75;;;;;;;28.55;33.31;99425.50;6189778;23;20430;-81
2022/06/13 08:03:26;;;;;;;3.78;2.72;;;;;;;28.91;33.58;99448.22;6189716;23;20020;-82
2022/06/13 08:05:52;;;;;;;17.13;3.50;;;;;;;29.31;33.56;99444.53;6190056;23;20078;-80
2022/06/13 08:08:18;;;;;;;5.30;2.90;;;;;;;29.59;32.60;99425.88;6216160;23;20047;-82
2022/06/13 08:10:47;;;;;;;3.33;2.90;;;;;;;29.13;32.89;99383.66;6214760;23;20059;-81
2022/06/13 08:13:20;;;;;;;5.40;2.90;;;;;;;28.82;32.87;99378.47;6163171;23;20024;-81
2022/06/13 08:15:50;;;;;;;3.58;2.92;;;;;;;29.15;32.95;99432.56;6163055;23;20120;-80
2022/06/13 08:18:21;;;;;;;4.13;2.88;;;;;;;29.63;33.08;99429.09;6187164;23;20024;-82
2022/06/13 08:20:47;;;;;;;3.38;3.05;;;;;;;29.95;32.07;99415.28;6187456;23;20359;-79
2022/06/13 08:23:19;;;;;;;5.05;2.90;;;;;;;30.81;31.52;99410.56;6187222;23;20080;-80
2022/06/13 08:26:22;;;;;;;4.97;3.10;;;;;;;31.17;30.02;99366.72;6163415;23;20020;-80
2022/06/13 08:28:51;;;;;;;4.40;3.20;;;;;;;30.80;30.62;99392.75;6186843;23;20524;-80
2022/06/13 08:31:22;;;;;;;3.30;3.00;;;;;;;30.34;31.46;99404.38;6161960;23;20027;-79
2022/06/13 08:33:49;;;;;;;3.47;3.17;;;;;;;29.94;32.18;99408.25;6188129;23;20027;-83
2022/06/13 08:36:19;;;;;;;4.45;2.75;;;;;;;29.74;32.69;99415.53;6214060;23;20023;-80
2022/06/13 08:38:46;;;;;;;4.88;3.55;;;;;;;29.29;33.06;99345.56;6188250;23;20469;-78
2022/06/13 08:41:41;;;;;;;4.07;3.17;;;;;;;29.73;33.00;99408.50;6188004;23;20031;-80
2022/06/13 08:44:47;;;;;;;5.00;3.53;;;;;;;29.79;33.40;99402.53;6211453;23;20435;-80
2022/06/13 08:47:29;;;;;;;5.53;4.15;;;;;;;30.72;32.45;99349.75;6163618;23;20020;-80
2022/06/13 08:50:28;;;;;;;3.50;3.20;;;;;;;31.97;30.35;99371.88;6214603;23;20013;-80
2022/06/13 08:53:02;;;;;;;3.70;3.13;;;;;;;33.75;28.89;99369.69;6188679;23;20035;-79
2022/06/13 08:55:45;;;;;;;5.03;2.95;;;;;;;35.04;27.89;99371.94;6215801;23;20021;-79
2022/06/13 08:58:13;;;;;;;3.55;2.75;;;;;;;35.31;26.45;99380.47;6216011;23;20525;-79
2022/06/13 09:00:47;;;;;;;4.05;3.00;;;;;;;35.54;26.59;99374.16;6140129;23;20016;-78
2022/06/13 09:03:16;;;;;;;2.78;2.58;;;;;;;36.13;25.55;99380.53;6197733;23;20048;-78
2022/06/13 09:05:50;;;;;;;3.08;2.80;;;;;;;36.07;24.96;99357.78;6230425;23;20012;-77
2022/06/13 09:08:25;;;;;;;2.90;2.70;;;;;;;35.44;24.08;99380.63;6209363;22;20004;-79
2022/06/13 09:11:15;;;;;;;4.22;2.92;;;;;;;34.17;25.53;99371.19;6214028;23;20032;-81
2022/06/13 09:13:54;;;;;;;5.05;2.90;;;;;;;32.70;26.71;99371.34;6219929;23;20462;-81
2022/06/13 09:16:34;;;;;;;4.68;2.88;;;;;;;32.66;27.61;99375.41;6215905;23;20028;-79
2022/06/13 09:19:12;;;;;;;4.88;2.63;;;;;;;33.27;26.85;99383.13;6137673;23;20444;-79
2022/06/13 09:21:49;;;;;;;3.92;2.97;;;;;;;33.35;27.55;99350.75;6162151;23;20074;-79
2022/06/13 09:24:15;;;;;;;4.95;2.90;;;;;;;34.04;26.22;99365.53;6187396;23;20096;-81
2022/06/13 09:26:53;;;;;;;3.28;2.80;;;;;;;34.17;25.66;99360.41;6162231;23;20414;-79
2022/06/13 09:29:41;;;;;;;4.78;2.70;;;;;;;34.36;24.90;99375.31;6185868;23;20367;-79
2022/06/13 09:32:23;;;;;;;5.25;2.70;;;;;;;34.17;24.73;99373.06;6213388;23;20021;-82
2022/06/13 09:34:51;;;;;;;7.05;2.53;;;;;;;34.30;24.86;99358.97;6187360;23;20016;-79
2022/06/13 09:37:40;;;;;;;6.55;2.80;;;;;;;33.79;24.82;99406.91;6193287;23;20080;-79
2022/06/13 09:40:07;;;;;;;3.55;2.60;;;;;;;33.57;25.41;99361.81;6212994;23;20016;-80
2022/06/13 09:42:56;;;;;;;3.33;2.63;;;;;;;32.69;25.88;99381.28;6161284;23;20019;-78
2022/06/13 09:45:28;;;;;;;3.03;2.72;;;;;;;31.89;26.44;99393.34;6187236;23;20433;-80
2022/06/13 09:48:16;;;;;;;5.57;2.60;;;;;;;30.88;28.00;99390.16;6187831;23;20033;-78
2022/06/13 09:50:43;;;;;;;5.22;2.80;;;;;;;30.10;28.57;99385.34;6186603;23;20590;-78
2022/06/13 09:53:28;;;;;;;5.50;2.70;;;;;;;29.93;29.54;99382.41;6185962;23;20024;-80
2022/06/13 09:56:06;;;;;;;6.03;2.65;;;;;;;29.62;30.04;99390.75;6162245;23;20335;-80
2022/06/13 09:59:04;;;;;;;2.83;2.53;;;;;;;29.12;30.88;99371.25;6189265;23;20023;-80
2022/06/13 10:01:59;;;;;;;8.38;3.00;;;;;;;29.31;30.92;99386.44;6188425;23;20060;-78
2022/06/13 10:04:57;;;;;;;5.00;2.55;;;;;;;29.21;31.28;99396.31;6199245;23;20012;-80
2022/06/13 10:07:40;;;;;;;4.32;2.65;;;;;;;28.75;30.75;99395.25;6165880;23;20021;-78
2022/06/13 10:10:25;;;;;;;3.85;2.30;;;;;;;28.67;30.44;99386.06;6187871;23;20409;-79
2022/06/13 10:12:54;;;;;;;3.80;2.70;;;;;;;28.82;30.65;99383.81;6188451;23;20542;-81
2022/06/13 10:15:48;;;;;;;4.35;2.40;;;;;;;29.02;30.50;99383.81;6217043;23;20022;-82
2022/06/13 10:18:26;;;;;;;2.80;2.60;;;;;;;29.41;29.99;99390.94;6195465;23;20020;-81
2022/06/13 10:20:58;;;;;;;4.18;2.30;;;;;;;29.84;29.78;99376.09;6224177;23;20099;-81
2022/06/13 10:23:31;;;;;;;2.58;2.30;;;;;;;29.63;29.86;99376.38;6192015;23;20016;-79
2022/06/13 10:26:33;;;;;;;4.47;2.60;;;;;;;29.61;30.40;99376.50;6141490;23;20012;-82
2022/06/13 10:29:31;;;;;;;4.10;2.58;;;;;;;29.64;30.50;99377.19;6216815;23;20354;-82
2022/06/13 10:32:15;;;;;;;9.38;2.30;;;;;;;29.27;30.19;99338.66;6216940;23;20381;-80
2022/06/13 10:35:04;;;;;;;;;;;;;;;;;;;;;
2022/06/13 10:37:40;;;;;;;2.58;2.38;;;;;;;28.92;30.46;99358.88;6173255;23;20044;-82
2022/06/13 10:40:07;;;;;;;5.82;2.58;;;;;;;28.84;31.44;99364.97;6219405;23;20048;-82
2022/06/13 10:42:35;;;;;;;3.55;2.35;;;;;;;28.78;30.45;99362.84;6190484;23;20017;-82
2022/06/13 10:45:10;;;;;;;6.60;2.22;;;;;;;28.56;30.91;99352.28;6192005;23;20050;-83
2022/06/13 10:48:13;;;;;;;2.40;2.20;;;;;;;28.60;30.50;99357.31;6194099;23;20016;-79
2022/06/13 10:50:51;;;;;;;3.15;2.10;;;;;;;28.01;30.67;99352.72;6173041;23;20020;-78
2022/06/13 10:53:24;;;;;;;5.25;2.25;;;;;;;28.03;30.93;99347.25;6191387;23;20458;-80
2022/06/13 10:55:54;;;;;;;3.13;2.03;;;;;;;28.05;31.42;99342.59;6191541;23;20478;-79
2022/06/13 10:58:38;;;;;;;2.50;2.30;;;;;;;28.09;31.41;99350.19;6188740;23;20339;-81
2022/06/13 11:01:24;;;;;;;4.47;2.50;;;;;;;28.07;31.56;99356.69;6217315;23;20016;-83
2022/06/13 11:04:18;;;;;;;3.03;2.10;;;;;;;27.91;32.18;99341.16;6190669;23;20087;-79
2022/06/13 11:06:46;;;;;;;3.30;2.40;;;;;;;28.15;32.21;99354.19;6220468;23;20088;-83
2022/06/13 11:09:42;;;;;;;3.30;2.30;;;;;;;28.18;31.88;99350.41;6192801;23;20446;-80
2022/06/13 11:12:23;;;;;;;3.83;2.83;;;;;;;28.16;32.82;99345.16;6190318;23;20016;-82
2022/06/13 11:23:46;;;;;;;5.10;2.28;;;;;;;27.38;33.86;99312.81;6190302;23;20016;-83
2022/06/13 11:29:03;;;;;;;5.10;2.60;;;;;;;27.17;33.88;99343.91;6216963;23;20087;-83
2022/06/13 11:31:30;;;;;;;4.82;2.22;;;;;;;26.90;34.01;99331.09;6189230;23;20051;-81
2022/06/13 11:33:56;;;;;;;4.18;2.22;;;;;;;26.76;34.24;99337.56;6190957;23;20020;-81
2022/06/13 11:36:26;;;;;;;3.10;2.20;;;;;;;26.65;34.09;99333.13;6218544;23;20067;-80
2022/06/13 11:38:59;;;;;;;2.58;2.28;;;;;;;26.53;33.91;99328.84;6142129;23;20023;-82
2022/06/13 11:41:45;;;;;;;2.95;1.95;;;;;;;26.45;33.83;99348.16;6217590;23;20021;-81
2022/06/13 11:44:18;;;;;;;5.30;2.03;;;;;;;26.16;34.29;99359.38;6221437;23;20017;-79
2022/06/13 11:46:53;;;;;;;5.57;2.15;;;;;;;25.87;34.61;99354.53;6173428;23;20154;-81
2022/06/13 11:49:23;;;;;;;3.88;2.22;;;;;;;25.54;35.32;99348.28;6230572;23;20485;-80
2022/06/13 11:51:57;;;;;;;6.95;2.38;;;;;;;25.30;35.77;99349.19;6169850;23;20071;-81
2022/06/13 11:54:31;;;;;;;4.57;2.20;;;;;;;25.20;36.01;99345.53;6190913;23;20078;-84
2022/06/13 11:57:13;;;;;;;5.35;2.53;;;;;;;25.05;36.84;99352.88;6197564;23;20023;-80
2022/06/13 11:59:57;;;;;;;2.67;2.47;;;;;;;24.88;37.18;99339.06;6229067;23;20012;-80
2022/06/13 12:02:26;;;;;;;2.67;2.40;;;;;;;24.48;37.68;99297.69;6177079;23;20068;-81
2022/06/13 12:04:56;;;;;;;5.28;2.58;;;;;;;24.53;38.41;99342.53;6228050;23;20016;-79
2022/06/13 12:07:29;;;;;;;6.07;2.35;;;;;;;24.45;38.45;99340.47;6182837;22;20052;-81
2022/06/13 12:09:58;;;;;;;5.90;2.78;;;;;;;24.45;38.77;99337.81;6214570;23;20005;-81
2022/06/13 12:12:41;;;;;;;3.05;2.50;;;;;;;24.45;38.90;99353.75;6207372;23;20065;-83
2022/06/13 12:15:14;;;;;;;3.28;2.53;;;;;;;24.41;39.53;99352.28;6198481;23;20022;-82
2022/06/13 12:18:07;;;;;;;3.53;2.72;;;;;;;24.34;40.11;99343.03;6173691;23;20023;-81
2022/06/13 12:20:58;;;;;;;7.80;2.85;;;;;;;24.29;40.08;99356.69;6191302;23;20103;-81
2022/06/13 12:23:41;;;;;;;3.20;2.38;;;;;;;23.94;40.51;99308.72;6191073;23;20021;-80
2022/06/13 12:26:12;;;;;;;3.50;2.65;;;;;;;24.19;40.80;99353.84;6221136;23;20016;-79
2022/06/13 12:28:48;;;;;;;7.60;2.80;;;;;;;23.98;41.59;99352.75;6219666;23;20090;-78
2022/06/13 12:31:26;;;;;;;3.88;3.22;;;;;;;23.96;41.91;99360.78;6218062;23;20027;-81
2022/06/13 12:34:15;;;;;;;5.32;3.15;;;;;;;23.62;42.13;99344.63;6195781;23;20080;-80
2022/06/13 12:37:12;;;;;;;6.00;3.35;;;;;;;23.45;43.67;99367.88;6175874;23;20059;-78
2022/06/13 12:39:51;;;;;;;7.25;3.53;;;;;;;23.22;44.29;99358.00;6210366;23;20351;-81
2022/06/13 12:42:29;;;;;;;;;;;;;;;23.16;44.93;99368.06;6211956;23;20016;-81
2022/06/13 12:45:09;;;;;;;4.70;3.90;;;;;;;22.87;45.20;99338.22;6187889;23;19899;-82
2022/06/13 12:47:43;;;;;;;5.63;3.75;;;;;;;23.01;45.54;99367.28;6177902;23;20024;-79